Time,TemperatureF,DewpointF,PressureIn,WindDirection,WindDirectionDegrees,WindSpeedMPH,WindSpeedGustMPH,Humidity,HourlyPrecipIn,Conditions,Clouds,dailyrainin,SoftwareType,DateUTC
2013-01-22 00:04:00,26.1,23.8,29.54,North,-999,0.0,0.0,91,0.00,,,0.00,pywws,2013-01-22 00:04:00,
2013-01-22 00:09:00,26.1,23.8,29.54,North,-999,0.0,0.0,91,0.00,,,0.00,pywws,2013-01-22 00:09:00,
2013-01-22 00:14:00,26.1,23.8,29.54,North,-999,0.0,0.0,91,0.00,,,0.00,pywws,2013-01-22 00:14:00,
2013-01-22 00:19:00,25.5,23.3,29.55,North,-999,0.0,0.0,91,0.00,,,0.00,pywws,2013-01-22 00:19:00,
2013-01-22 00:24:00,25.5,23.3,29.55,North,-999,0.0,0.0,91,0.00,,,0.00,pywws,2013-01-22 00:24:00,
2013-01-22 00:34:00,25.3,23.1,29.55,North,-999,0.0,0.0,91,0.00,,,0.00,pywws,2013-01-22 00:34:00,
2013-01-22 00:39:00,24.8,22.6,29.55,North,-999,0.0,0.0,91,0.00,,,0.00,pywws,2013-01-22 00:39:00,
2013-01-22 00:44:00,24.8,22.6,29.55,North,-999,0.0,0.0,91,0.00,,,0.00,pywws,2013-01-22 00:44:00,
2013-01-22 00:49:00,24.4,22.2,29.55,North,-999,0.0,0.0,91,0.00,,,0.00,pywws,2013-01-22 00:49:00,
2013-01-22 00:54:00,24.3,22.0,29.55,North,-999,0.0,0.0,91,0.00,,,0.00,pywws,2013-01-22 00:54:00,
2013-01-22 01:04:00,24.3,22.0,29.55,North,-999,0.0,0.0,91,0.00,,,0.00,pywws,2013-01-22 01:04:00,
2013-01-22 01:09:00,24.4,22.2,29.55,North,-999,0.0,0.0,91,0.00,,,0.00,pywws,2013-01-22 01:09:00,
2013-01-22 01:14:00,24.3,22.0,29.55,North,-999,0.0,0.0,91,0.00,,,0.00,pywws,2013-01-22 01:14:00,
2013-01-22 01:19:00,24.3,22.0,29.55,North,-999,0.0,0.0,91,0.00,,,0.00,pywws,2013-01-22 01:19:00,
2013-01-22 01:24:00,24.1,21.8,29.55,North,-999,0.0,0.0,91,0.00,,,0.00,pywws,2013-01-22 01:24:00,
2013-01-22 01:34:00,23.9,21.7,29.55,North,-999,0.0,0.0,91,0.00,,,0.00,pywws,2013-01-22 01:34:00,
2013-01-22 01:38:00,24.4,22.5,29.55,North,-999,0.0,0.0,92,0.00,,,0.00,pywws,2013-01-22 01:38:00,
2013-01-22 01:43:00,24.1,22.1,29.55,North,-999,0.0,0.0,92,0.00,,,0.00,pywws,2013-01-22 01:43:00,
2013-01-22 01:48:00,24.1,22.1,29.55,North,-999,0.0,0.0,92,0.00,,,0.00,pywws,2013-01-22 01:48:00,
2013-01-22 01:53:00,24.1,22.1,29.55,North,-999,0.0,0.0,92,0.00,,,0.00,pywws,2013-01-22 01:53:00,
2013-01-22 02:04:00,23.9,21.9,29.55,North,-999,0.0,0.0,92,0.00,,,0.00,pywws,2013-01-22 02:04:00,
2013-01-22 02:09:00,24.1,22.1,29.55,North,-999,0.0,0.0,92,0.00,,,0.00,pywws,2013-01-22 02:09:00,
2013-01-22 02:14:00,23.9,21.9,29.55,North,-999,0.0,0.0,92,0.00,,,0.00,pywws,2013-01-22 02:14:00,
2013-01-22 02:19:00,24.1,22.1,29.55,North,-999,0.0,0.0,92,0.00,,,0.00,pywws,2013-01-22 02:19:00,
2013-01-22 02:24:00,24.3,22.3,29.56,North,-999,0.0,0.0,92,0.00,,,0.00,pywws,2013-01-22 02:24:00,
2013-01-22 02:34:00,23.9,21.9,29.55,North,-999,0.0,0.0,92,0.00,,,0.00,pywws,2013-01-22 02:34:00,
2013-01-22 02:39:00,24.1,22.1,29.55,North,-999,0.0,0.0,92,0.00,,,0.00,pywws,2013-01-22 02:39:00,
2013-01-22 02:44:00,24.1,22.1,29.55,North,-999,0.0,0.0,92,0.00,,,0.00,pywws,2013-01-22 02:44:00,
2013-01-22 02:49:00,23.7,21.7,29.55,North,-999,0.0,0.0,92,0.00,,,0.00,pywws,2013-01-22 02:49:00,
2013-01-22 02:54:00,24.1,22.1,29.55,North,-999,0.0,0.0,92,0.00,,,0.00,pywws,2013-01-22 02:54:00,
2013-01-22 03:04:00,24.3,22.5,29.55,North,-999,0.0,0.0,93,0.00,,,0.00,pywws,2013-01-22 03:04:00,
2013-01-22 03:09:00,24.1,22.4,29.55,North,-999,0.0,0.0,93,0.00,,,0.00,pywws,2013-01-22 03:09:00,
2013-01-22 03:14:00,24.3,22.5,29.54,North,-999,0.0,0.0,93,0.00,,,0.00,pywws,2013-01-22 03:14:00,
2013-01-22 03:19:00,24.3,22.5,29.55,North,-999,0.0,0.0,93,0.00,,,0.00,pywws,2013-01-22 03:19:00,
2013-01-22 03:24:00,23.9,22.2,29.55,North,-999,0.0,0.0,93,0.00,,,0.00,pywws,2013-01-22 03:24:00,
2013-01-22 03:34:00,24.3,22.5,29.55,North,-999,0.0,0.0,93,0.00,,,0.00,pywws,2013-01-22 03:34:00,
2013-01-22 03:39:00,24.1,22.4,29.55,North,-999,0.0,0.0,93,0.00,,,0.00,pywws,2013-01-22 03:39:00,
2013-01-22 03:44:00,23.5,21.8,29.56,North,-999,0.0,0.0,93,0.00,,,0.00,pywws,2013-01-22 03:44:00,
2013-01-22 03:49:00,23.7,22.0,29.56,North,-999,0.0,0.0,93,0.00,,,0.00,pywws,2013-01-22 03:49:00,
2013-01-22 03:54:00,23.7,22.0,29.56,North,-999,0.0,0.0,93,0.00,,,0.00,pywws,2013-01-22 03:54:00,
2013-01-22 04:04:00,24.3,22.5,29.56,North,-999,0.0,0.0,93,0.00,,,0.00,pywws,2013-01-22 04:04:00,
2013-01-22 04:09:00,23.5,21.8,29.56,North,-999,0.0,0.0,93,0.00,,,0.00,pywws,2013-01-22 04:09:00,
2013-01-22 04:14:00,23.5,21.8,29.56,North,-999,0.0,0.0,93,0.00,,,0.00,pywws,2013-01-22 04:14:00,
2013-01-22 04:19:00,23.4,21.6,29.56,North,-999,0.0,0.0,93,0.00,,,0.00,pywws,2013-01-22 04:19:00,
2013-01-22 04:24:00,23.2,21.2,29.57,North,-999,0.0,0.0,92,0.00,,,0.00,pywws,2013-01-22 04:24:00,
2013-01-22 04:34:00,23.4,21.4,29.56,North,-999,0.0,0.0,92,0.00,,,0.00,pywws,2013-01-22 04:34:00,
2013-01-22 04:38:00,23.0,21.0,29.56,North,-999,0.0,0.0,92,0.00,,,0.00,pywws,2013-01-22 04:38:00,
2013-01-22 04:43:00,23.0,21.3,29.56,North,-999,0.0,0.0,93,0.00,,,0.00,pywws,2013-01-22 04:43:00,
2013-01-22 04:48:00,22.8,21.1,29.56,North,-999,0.0,0.0,93,0.00,,,0.00,pywws,2013-01-22 04:48:00,
2013-01-22 04:53:00,23.0,21.3,29.56,North,-999,0.0,0.0,93,0.00,,,0.00,pywws,2013-01-22 04:53:00,
2013-01-22 05:04:00,23.2,21.5,29.56,North,-999,0.0,0.0,93,0.00,,,0.00,pywws,2013-01-22 05:04:00,
2013-01-22 05:09:00,23.2,21.5,29.56,North,-999,0.0,0.0,93,0.00,,,0.00,pywws,2013-01-22 05:09:00,
2013-01-22 05:14:00,23.4,21.6,29.55,North,-999,0.0,0.0,93,0.00,,,0.00,pywws,2013-01-22 05:14:00,
2013-01-22 05:19:00,23.5,21.8,29.55,North,-999,0.0,0.0,93,0.00,,,0.00,pywws,2013-01-22 05:19:00,
2013-01-22 05:24:00,23.7,22.0,29.55,North,-999,0.0,0.0,93,0.00,,,0.00,pywws,2013-01-22 05:24:00,
2013-01-22 05:34:00,24.3,22.8,29.56,North,-999,0.0,0.0,94,0.00,,,0.00,pywws,2013-01-22 05:34:00,
2013-01-22 05:38:00,24.8,23.3,29.56,North,-999,0.0,0.0,94,0.00,,,0.00,pywws,2013-01-22 05:38:00,
2013-01-22 05:43:00,25.2,23.7,29.57,North,-999,0.0,0.0,94,0.00,,,0.00,pywws,2013-01-22 05:43:00,
2013-01-22 05:48:00,25.2,23.7,29.57,North,-999,0.0,0.0,94,0.00,,,0.00,pywws,2013-01-22 05:48:00,
2013-01-22 05:53:00,25.5,24.0,29.57,North,-999,0.0,0.0,94,0.00,,,0.00,pywws,2013-01-22 05:53:00,
2013-01-22 06:04:00,25.9,24.4,29.57,North,-999,0.0,0.0,94,0.00,,,0.00,pywws,2013-01-22 06:04:00,
2013-01-22 06:09:00,26.8,25.3,29.57,North,-999,0.0,0.0,94,0.00,,,0.00,pywws,2013-01-22 06:09:00,
2013-01-22 06:14:00,27.1,25.6,29.57,North,-999,0.0,0.0,94,0.00,,,0.00,pywws,2013-01-22 06:14:00,
2013-01-22 06:19:00,27.5,26.0,29.58,North,-999,0.0,0.0,94,0.00,,,0.00,pywws,2013-01-22 06:19:00,
2013-01-22 06:24:00,27.9,26.4,29.57,North,-999,0.0,0.0,94,0.00,,,0.00,pywws,2013-01-22 06:24:00,
2013-01-22 06:34:00,28.0,26.5,29.57,North,-999,0.0,0.0,94,0.00,,,0.00,pywws,2013-01-22 06:34:00,
2013-01-22 06:38:00,28.2,26.7,29.57,North,-999,0.0,0.0,94,0.00,,,0.00,pywws,2013-01-22 06:38:00,
2013-01-22 06:43:00,28.4,27.2,29.57,North,-999,0.0,0.0,95,0.00,,,0.00,pywws,2013-01-22 06:43:00,
2013-01-22 06:48:00,28.4,26.9,29.58,North,-999,0.0,0.0,94,0.00,,,0.00,pywws,2013-01-22 06:48:00,
2013-01-22 06:53:00,28.4,27.2,29.58,North,-999,0.0,0.0,95,0.00,,,0.00,pywws,2013-01-22 06:53:00,
2013-01-22 07:04:00,28.6,27.3,29.58,North,-999,0.0,0.0,95,0.00,,,0.00,pywws,2013-01-22 07:04:00,
2013-01-22 07:09:00,28.8,27.5,29.57,North,-999,0.0,0.0,95,0.00,,,0.00,pywws,2013-01-22 07:09:00,
2013-01-22 07:14:00,28.8,27.5,29.58,North,-999,0.0,0.0,95,0.00,,,0.00,pywws,2013-01-22 07:14:00,
2013-01-22 07:19:00,28.9,27.7,29.57,North,-999,0.0,0.0,95,0.00,,,0.00,pywws,2013-01-22 07:19:00,
2013-01-22 07:24:00,29.5,28.2,29.57,North,-999,0.0,0.0,95,0.00,,,0.00,pywws,2013-01-22 07:24:00,
2013-01-22 07:34:00,29.3,28.0,29.58,North,-999,0.0,0.0,95,0.00,,,0.00,pywws,2013-01-22 07:34:00,
2013-01-22 07:38:00,29.7,28.4,29.58,North,-999,0.0,0.0,95,0.00,,,0.00,pywws,2013-01-22 07:38:00,
2013-01-22 07:43:00,29.5,28.2,29.57,North,-999,0.0,0.0,95,0.00,,,0.00,pywws,2013-01-22 07:43:00,
2013-01-22 07:48:00,29.7,28.4,29.57,North,-999,0.0,0.0,95,0.00,,,0.00,pywws,2013-01-22 07:48:00,
2013-01-22 07:53:00,29.5,28.2,29.57,North,-999,0.0,0.0,95,0.00,,,0.00,pywws,2013-01-22 07:53:00,
2013-01-22 08:04:00,29.7,28.7,29.58,North,-999,0.0,0.0,96,0.00,,,0.00,pywws,2013-01-22 08:04:00,
2013-01-22 08:08:00,29.7,28.7,29.58,North,-999,0.0,0.0,96,0.00,,,0.00,pywws,2013-01-22 08:08:00,
2013-01-22 08:13:00,29.7,28.7,29.58,North,-999,0.0,0.0,96,0.00,,,0.00,pywws,2013-01-22 08:13:00,
2013-01-22 08:18:00,29.5,28.5,29.58,North,-999,0.0,0.0,96,0.00,,,0.00,pywws,2013-01-22 08:18:00,
2013-01-22 08:23:00,29.8,28.8,29.58,North,-999,0.0,0.0,96,0.00,,,0.00,pywws,2013-01-22 08:23:00,
2013-01-22 08:34:00,30.0,29.0,29.58,North,-999,0.0,0.0,96,0.00,,,0.00,pywws,2013-01-22 08:34:00,
2013-01-22 08:39:00,30.0,29.0,29.58,North,-999,0.0,0.0,96,0.00,,,0.00,pywws,2013-01-22 08:39:00,
2013-01-22 08:44:00,30.2,29.2,29.58,North,-999,0.0,0.0,96,0.00,,,0.00,pywws,2013-01-22 08:44:00,
2013-01-22 08:49:00,30.4,29.4,29.58,North,-999,0.0,0.0,96,0.00,,,0.00,pywws,2013-01-22 08:49:00,
2013-01-22 08:54:00,30.6,29.6,29.59,North,-999,0.0,0.0,96,0.00,,,0.00,pywws,2013-01-22 08:54:00,
2013-01-22 09:04:00,30.4,29.4,29.59,North,-999,0.0,0.0,96,0.00,,,0.00,pywws,2013-01-22 09:04:00,
2013-01-22 09:09:00,30.9,29.9,29.59,North,-999,0.0,0.0,96,0.00,,,0.00,pywws,2013-01-22 09:09:00,
2013-01-22 09:14:00,30.9,29.9,29.58,North,-999,0.0,0.0,96,0.00,,,0.00,pywws,2013-01-22 09:14:00,
2013-01-22 09:19:00,31.3,30.3,29.59,North,-999,0.0,0.0,96,0.00,,,0.00,pywws,2013-01-22 09:19:00,
2013-01-22 09:24:00,31.1,30.1,29.59,North,-999,0.0,0.0,96,0.00,,,0.00,pywws,2013-01-22 09:24:00,
2013-01-22 09:34:00,31.1,30.1,29.59,North,-999,0.0,0.0,96,0.00,,,0.00,pywws,2013-01-22 09:34:00,
2013-01-22 09:39:00,31.6,30.6,29.59,North,-999,0.0,0.0,96,0.00,,,0.00,pywws,2013-01-22 09:39:00,
2013-01-22 09:44:00,31.8,30.8,29.59,North,-999,0.0,0.0,96,0.00,,,0.00,pywws,2013-01-22 09:44:00,
2013-01-22 09:49:00,31.8,30.8,29.59,North,-999,0.0,0.0,96,0.00,,,0.00,pywws,2013-01-22 09:49:00,
2013-01-22 09:54:00,31.6,30.6,29.59,North,-999,0.0,0.0,96,0.00,,,0.00,pywws,2013-01-22 09:54:00,
2013-01-22 10:04:00,31.8,30.8,29.60,North,-999,0.0,0.0,96,0.00,,,0.00,pywws,2013-01-22 10:04:00,
2013-01-22 10:09:00,31.8,30.8,29.60,North,-999,0.0,0.0,96,0.00,,,0.00,pywws,2013-01-22 10:09:00,
2013-01-22 10:14:00,31.8,30.8,29.60,North,-999,0.0,0.0,96,0.00,,,0.00,pywws,2013-01-22 10:14:00,
2013-01-22 10:19:00,32.0,31.0,29.60,North,-999,0.0,0.0,96,0.00,,,0.00,pywws,2013-01-22 10:19:00,
2013-01-22 10:24:00,32.0,31.0,29.60,North,-999,0.0,0.0,96,0.00,,,0.00,pywws,2013-01-22 10:24:00,
2013-01-22 10:34:00,32.2,30.9,29.60,North,-999,0.0,0.0,95,0.00,,,0.00,pywws,2013-01-22 10:34:00,
2013-01-22 10:39:00,32.5,31.5,29.60,North,-999,0.0,0.0,96,0.00,,,0.00,pywws,2013-01-22 10:39:00,
2013-01-22 10:44:00,32.5,31.5,29.60,North,-999,0.0,0.0,96,0.00,,,0.00,pywws,2013-01-22 10:44:00,
2013-01-22 10:49:00,32.7,31.7,29.60,North,-999,0.0,0.0,96,0.00,,,0.00,pywws,2013-01-22 10:49:00,
2013-01-22 10:54:00,32.9,31.6,29.60,North,-999,0.0,0.0,95,0.00,,,0.00,pywws,2013-01-22 10:54:00,
2013-01-22 11:04:00,33.3,32.0,29.60,North,-999,0.0,0.0,95,0.00,,,0.00,pywws,2013-01-22 11:04:00,
2013-01-22 11:09:00,34.0,32.7,29.59,North,-999,0.0,0.0,95,0.00,,,0.00,pywws,2013-01-22 11:09:00,
2013-01-22 11:14:00,34.0,32.7,29.60,North,-999,0.0,0.0,95,0.00,,,0.00,pywws,2013-01-22 11:14:00,
2013-01-22 11:19:00,34.0,32.7,29.60,North,-999,0.0,0.0,95,0.00,,,0.00,pywws,2013-01-22 11:19:00,
2013-01-22 11:24:00,34.0,32.7,29.60,North,-999,0.0,0.0,95,0.00,,,0.00,pywws,2013-01-22 11:24:00,
2013-01-22 11:34:00,34.0,32.7,29.60,North,-999,0.0,1.6,95,0.00,,,0.00,pywws,2013-01-22 11:34:00,
2013-01-22 11:39:00,34.3,33.1,29.59,North,-999,0.0,0.7,95,0.00,,,0.00,pywws,2013-01-22 11:39:00,
2013-01-22 11:44:00,34.5,33.0,29.59,North,-999,0.0,1.6,94,0.00,,,0.00,pywws,2013-01-22 11:44:00,
2013-01-22 11:49:00,34.7,33.2,29.59,North,0,0.7,3.1,94,0.00,,,0.00,pywws,2013-01-22 11:49:00,
2013-01-22 11:54:00,35.1,33.5,29.59,North,-999,0.0,2.2,94,0.00,,,0.00,pywws,2013-01-22 11:54:00,
2013-01-22 12:04:00,35.2,33.7,29.59,North,0,1.6,3.1,94,0.00,,,0.00,pywws,2013-01-22 12:04:00,
2013-01-22 12:09:00,35.2,33.2,29.59,North,-999,0.7,2.2,92,0.00,,,0.00,pywws,2013-01-22 12:09:00,
2013-01-22 12:14:00,35.4,33.3,29.59,NE,45,0.7,2.2,92,0.00,,,0.00,pywws,2013-01-22 12:14:00,
2013-01-22 12:19:00,35.4,33.1,29.59,NE,45,1.6,3.8,91,0.00,,,0.00,pywws,2013-01-22 12:19:00,
2013-01-22 12:24:00,35.8,33.4,29.59,NE,45,3.8,8.3,91,0.00,,,0.00,pywws,2013-01-22 12:24:00,
2013-01-22 12:34:00,35.8,33.1,29.59,North,0,3.1,6.9,90,0.00,,,0.00,pywws,2013-01-22 12:34:00,
2013-01-22 12:39:00,35.2,32.6,29.59,North,0,1.6,5.4,90,0.01,,,0.01,pywws,2013-01-22 12:39:00,
2013-01-22 12:44:00,35.8,33.1,29.59,NE,45,2.2,5.4,90,0.01,,,0.01,pywws,2013-01-22 12:44:00,
2013-01-22 12:49:00,35.8,33.1,29.59,NNE,22,2.2,5.4,90,0.01,,,0.01,pywws,2013-01-22 12:49:00,
2013-01-22 12:54:00,36.3,33.7,29.59,NE,45,1.6,3.8,90,0.01,,,0.01,pywws,2013-01-22 12:54:00,
2013-01-22 13:04:00,36.9,33.9,29.58,North,-999,1.6,3.1,89,0.01,,,0.01,pywws,2013-01-22 13:04:00,
2013-01-22 13:09:00,37.6,34.4,29.58,North,0,1.6,4.5,88,0.01,,,0.01,pywws,2013-01-22 13:09:00,
2013-01-22 13:14:00,37.4,33.9,29.58,North,0,2.2,6.9,87,0.01,,,0.01,pywws,2013-01-22 13:14:00,
2013-01-22 13:19:00,37.4,33.6,29.58,NE,45,1.6,4.5,86,0.01,,,0.01,pywws,2013-01-22 13:19:00,
2013-01-22 13:24:00,37.6,33.8,29.58,West,270,1.6,3.1,86,0.01,,,0.01,pywws,2013-01-22 13:24:00,
2013-01-22 13:34:00,37.0,33.2,29.58,NE,45,1.6,3.8,86,0.01,,,0.01,pywws,2013-01-22 13:34:00,
2013-01-22 13:39:00,37.4,33.6,29.59,NE,45,1.6,3.8,86,0.00,,,0.01,pywws,2013-01-22 13:39:00,
2013-01-22 13:44:00,36.9,32.8,29.58,West,270,2.2,3.8,85,0.00,,,0.01,pywws,2013-01-22 13:44:00,
2013-01-22 13:49:00,37.0,33.2,29.59,NNE,22,3.1,6.0,86,0.00,,,0.01,pywws,2013-01-22 13:49:00,
2013-01-22 13:54:00,36.9,33.1,29.59,North,0,0.7,3.1,86,0.00,,,0.01,pywws,2013-01-22 13:54:00,
2013-01-22 14:04:00,36.9,33.1,29.59,North,0,1.6,4.5,86,0.00,,,0.01,pywws,2013-01-22 14:04:00,
2013-01-22 14:09:00,43.5,39.6,29.59,West,270,3.1,5.4,86,0.00,,,0.01,pywws,2013-01-22 14:09:00,
2013-01-22 14:14:00,36.9,33.1,29.59,West,270,1.6,4.5,86,0.00,,,0.01,pywws,2013-01-22 14:14:00,
2013-01-22 14:19:00,36.5,32.7,29.59,North,0,2.2,4.5,86,0.01,,,0.02,pywws,2013-01-22 14:19:00,
2013-01-22 14:24:00,36.5,32.7,29.59,North,0,1.6,4.5,86,0.01,,,0.02,pywws,2013-01-22 14:24:00,
2013-01-22 14:34:00,36.5,32.7,29.59,NE,45,1.6,3.8,86,0.01,,,0.02,pywws,2013-01-22 14:34:00,
2013-01-22 14:39:00,36.5,32.7,29.59,NE,45,1.6,3.1,86,0.02,,,0.04,pywws,2013-01-22 14:39:00,
2013-01-22 14:44:00,36.5,32.7,29.59,West,270,1.6,3.1,86,0.02,,,0.04,pywws,2013-01-22 14:44:00,
2013-01-22 14:49:00,36.3,32.5,29.59,NE,45,1.6,4.5,86,0.02,,,0.04,pywws,2013-01-22 14:49:00,
2013-01-22 14:54:00,36.1,32.4,29.59,North,0,0.7,2.2,86,0.04,,,0.05,pywws,2013-01-22 14:54:00,
2013-01-22 15:04:00,36.3,32.5,29.59,NE,45,1.6,4.5,86,0.04,,,0.05,pywws,2013-01-22 15:04:00,
2013-01-22 15:09:00,36.1,32.4,29.59,NW,315,2.2,4.5,86,0.04,,,0.05,pywws,2013-01-22 15:09:00,
2013-01-22 15:14:00,36.1,32.4,29.59,West,270,0.7,3.8,86,0.04,,,0.05,pywws,2013-01-22 15:14:00,
2013-01-22 15:19:00,36.1,32.4,29.60,NNE,22,1.6,3.8,86,0.02,,,0.05,pywws,2013-01-22 15:19:00,
2013-01-22 15:24:00,36.0,32.2,29.59,North,-999,3.8,6.9,86,0.04,,,0.06,pywws,2013-01-22 15:24:00,
2013-01-22 15:34:00,36.0,31.9,29.60,SE,135,1.6,3.1,85,0.04,,,0.06,pywws,2013-01-22 15:34:00,
2013-01-22 15:39:00,35.8,31.4,29.60,North,-999,2.2,5.4,84,0.02,,,0.06,pywws,2013-01-22 15:39:00,
2013-01-22 15:44:00,36.0,31.3,29.60,North,0,3.8,7.6,83,0.02,,,0.06,pywws,2013-01-22 15:44:00,
2013-01-22 15:49:00,36.3,31.4,29.60,NE,45,2.2,5.4,82,0.02,,,0.06,pywws,2013-01-22 15:49:00,
2013-01-22 15:54:00,36.3,31.1,29.60,West,270,2.2,4.5,81,0.01,,,0.06,pywws,2013-01-22 15:54:00,
2013-01-22 16:04:00,36.1,30.9,29.60,NE,45,3.1,9.8,81,0.01,,,0.06,pywws,2013-01-22 16:04:00,
2013-01-22 16:09:00,36.0,30.4,29.60,SE,135,3.1,8.3,80,0.01,,,0.06,pywws,2013-01-22 16:09:00,
2013-01-22 16:14:00,36.0,30.4,29.61,SE,135,3.8,9.2,80,0.02,,,0.07,pywws,2013-01-22 16:14:00,
2013-01-22 16:19:00,42.1,36.4,29.61,NW,315,1.6,3.8,80,0.02,,,0.07,pywws,2013-01-22 16:19:00,
2013-01-22 16:24:00,36.0,30.4,29.61,NNE,22,2.2,6.0,80,0.01,,,0.07,pywws,2013-01-22 16:24:00,
2013-01-22 16:34:00,36.0,30.4,29.61,NE,45,0.7,3.8,80,0.01,,,0.07,pywws,2013-01-22 16:34:00,
2013-01-22 16:39:00,36.0,30.1,29.61,North,0,2.2,4.5,79,0.01,,,0.07,pywws,2013-01-22 16:39:00,
2013-01-22 16:44:00,36.1,30.0,29.61,West,270,2.2,5.4,78,0.01,,,0.07,pywws,2013-01-22 16:44:00,
2013-01-22 16:49:00,35.8,29.3,29.61,West,270,4.5,9.8,77,0.01,,,0.07,pywws,2013-01-22 16:49:00,
2013-01-22 16:54:00,36.0,29.5,29.61,NE,45,3.8,6.9,77,0.01,,,0.07,pywws,2013-01-22 16:54:00,
2013-01-22 17:04:00,36.1,29.3,29.62,NE,45,3.1,6.9,76,0.01,,,0.07,pywws,2013-01-22 17:04:00,
2013-01-22 17:09:00,33.8,26.7,29.62,NW,315,2.2,6.0,75,0.01,,,0.07,pywws,2013-01-22 17:09:00,
2013-01-22 17:14:00,36.5,29.0,29.63,West,270,4.5,7.6,74,0.00,,,0.07,pywws,2013-01-22 17:14:00,
2013-01-22 17:19:00,36.7,29.2,29.63,NE,45,1.6,3.1,74,0.00,,,0.07,pywws,2013-01-22 17:19:00,
2013-01-22 17:24:00,36.7,29.2,29.63,North,0,2.2,6.0,74,0.01,,,0.08,pywws,2013-01-22 17:24:00,
2013-01-22 17:34:00,36.3,28.8,29.63,West,270,3.8,9.8,74,0.01,,,0.08,pywws,2013-01-22 17:34:00,
2013-01-22 17:39:00,36.3,29.2,29.63,SE,135,3.1,8.3,75,0.01,,,0.08,pywws,2013-01-22 17:39:00,
2013-01-22 17:44:00,36.3,28.8,29.63,NE,45,3.8,8.3,74,0.01,,,0.08,pywws,2013-01-22 17:44:00,
2013-01-22 17:49:00,36.5,29.3,29.63,North,-999,0.7,2.2,75,0.01,,,0.08,pywws,2013-01-22 17:49:00,
2013-01-22 17:54:00,36.9,29.4,29.63,NE,45,1.6,4.5,74,0.01,,,0.08,pywws,2013-01-22 17:54:00,
2013-01-22 18:04:00,36.5,29.0,29.64,NW,315,1.6,7.6,74,0.01,,,0.08,pywws,2013-01-22 18:04:00,
2013-01-22 18:09:00,36.5,29.3,29.65,NE,45,2.2,5.4,75,0.01,,,0.08,pywws,2013-01-22 18:09:00,
2013-01-22 18:14:00,36.3,29.2,29.65,NE,45,2.2,6.0,75,0.01,,,0.08,pywws,2013-01-22 18:14:00,
2013-01-22 18:19:00,36.3,29.5,29.64,NW,315,2.2,6.0,76,0.02,,,0.09,pywws,2013-01-22 18:19:00,
2013-01-22 18:24:00,36.5,29.7,29.65,NW,315,0.7,3.1,76,0.01,,,0.09,pywws,2013-01-22 18:24:00,
2013-01-22 18:34:00,36.5,29.3,29.65,NE,45,3.8,7.6,75,0.01,,,0.09,pywws,2013-01-22 18:34:00,
2013-01-22 18:39:00,36.7,29.5,29.65,West,270,3.1,4.5,75,0.01,,,0.09,pywws,2013-01-22 18:39:00,
2013-01-22 18:44:00,36.7,29.5,29.66,NE,45,3.1,7.6,75,0.01,,,0.09,pywws,2013-01-22 18:44:00,
2013-01-22 18:49:00,36.7,29.5,29.65,NE,45,6.0,12.1,75,0.01,,,0.09,pywws,2013-01-22 18:49:00,
2013-01-22 18:54:00,36.7,29.5,29.66,NE,45,3.8,9.8,75,0.01,,,0.09,pywws,2013-01-22 18:54:00,
2013-01-22 19:04:00,36.7,29.5,29.66,SE,135,4.5,13.6,75,0.01,,,0.09,pywws,2013-01-22 19:04:00,
2013-01-22 19:09:00,36.7,29.8,29.66,NE,45,4.5,13.0,76,0.01,,,0.09,pywws,2013-01-22 19:09:00,
2013-01-22 19:14:00,36.7,29.8,29.66,NE,45,2.2,5.4,76,0.01,,,0.09,pywws,2013-01-22 19:14:00,
2013-01-22 19:19:00,36.7,30.2,29.66,North,0,2.2,6.9,77,0.01,,,0.11,pywws,2013-01-22 19:19:00,
2013-01-22 19:24:00,36.7,30.2,29.66,North,0,1.6,5.4,77,0.01,,,0.11,pywws,2013-01-22 19:24:00,
2013-01-22 19:34:00,36.9,30.3,29.66,North,0,2.2,4.5,77,0.01,,,0.11,pywws,2013-01-22 19:34:00,
2013-01-22 19:39:00,36.7,30.5,29.66,West,270,3.1,8.3,78,0.01,,,0.11,pywws,2013-01-22 19:39:00,
2013-01-22 19:44:00,36.9,30.7,29.66,North,-999,2.2,4.5,78,0.01,,,0.11,pywws,2013-01-22 19:44:00,
2013-01-22 19:49:00,36.5,30.3,29.67,SE,135,5.4,8.3,78,0.01,,,0.11,pywws,2013-01-22 19:49:00,
2013-01-22 19:54:00,36.7,30.5,29.67,West,270,2.2,4.5,78,0.01,,,0.11,pywws,2013-01-22 19:54:00,
2013-01-22 20:04:00,36.7,30.5,29.67,North,0,2.2,6.0,78,0.01,,,0.11,pywws,2013-01-22 20:04:00,
2013-01-22 20:09:00,36.9,30.7,29.67,NE,45,3.1,4.5,78,0.01,,,0.11,pywws,2013-01-22 20:09:00,
2013-01-22 20:14:00,36.9,30.7,29.67,South,180,1.6,6.9,78,0.01,,,0.11,pywws,2013-01-22 20:14:00,
2013-01-22 20:19:00,36.7,30.2,29.67,North,0,3.1,4.5,77,0.00,,,0.11,pywws,2013-01-22 20:19:00,
2013-01-22 20:24:00,36.7,29.8,29.67,NW,315,3.8,7.6,76,0.01,,,0.12,pywws,2013-01-22 20:24:00,
2013-01-22 20:34:00,36.9,29.7,29.67,NE,45,6.9,15.2,75,0.01,,,0.12,pywws,2013-01-22 20:34:00,
2013-01-22 20:39:00,37.4,29.9,29.68,NW,315,6.9,13.6,74,0.01,,,0.12,pywws,2013-01-22 20:39:00,
2013-01-22 20:44:00,36.9,29.0,29.67,South,180,6.0,11.4,73,0.01,,,0.12,pywws,2013-01-22 20:44:00,
2013-01-22 20:49:00,36.9,29.0,29.68,West,270,3.1,8.3,73,0.01,,,0.12,pywws,2013-01-22 20:49:00,
2013-01-22 20:54:00,36.5,28.7,29.68,South,180,4.5,10.7,73,0.01,,,0.12,pywws,2013-01-22 20:54:00,
2013-01-22 21:04:00,36.5,28.3,29.68,SE,135,3.1,6.9,72,0.01,,,0.12,pywws,2013-01-22 21:04:00,
2013-01-22 21:09:00,36.7,28.9,29.68,NE,45,4.5,9.8,73,0.01,,,0.12,pywws,2013-01-22 21:09:00,
2013-01-22 21:14:00,36.9,29.4,29.68,West,270,3.1,5.4,74,0.01,,,0.12,pywws,2013-01-22 21:14:00,
2013-01-22 21:19:00,37.2,29.7,29.69,NE,45,2.2,6.0,74,0.01,,,0.12,pywws,2013-01-22 21:19:00,
2013-01-22 21:24:00,36.5,29.0,29.69,NW,315,2.2,5.4,74,0.00,,,0.12,pywws,2013-01-22 21:24:00,
2013-01-22 21:34:00,36.7,29.2,29.69,SW,225,0.7,3.1,74,0.00,,,0.12,pywws,2013-01-22 21:34:00,
2013-01-22 21:38:00,36.7,29.5,29.69,West,270,2.2,6.0,75,0.00,,,0.12,pywws,2013-01-22 21:38:00,
2013-01-22 21:43:00,36.9,29.7,29.70,SE,135,3.1,9.2,75,0.00,,,0.12,pywws,2013-01-22 21:43:00,
2013-01-22 21:48:00,36.7,29.8,29.70,West,270,3.1,5.4,76,0.00,,,0.12,pywws,2013-01-22 21:48:00,
2013-01-22 21:53:00,36.7,30.2,29.70,North,-999,3.1,7.6,77,0.00,,,0.12,pywws,2013-01-22 21:53:00,
2013-01-22 22:04:00,36.5,30.3,29.70,NE,45,3.1,6.9,78,0.00,,,0.12,pywws,2013-01-22 22:04:00,
2013-01-22 22:09:00,36.3,30.8,29.70,West,270,2.2,6.9,80,0.00,,,0.12,pywws,2013-01-22 22:09:00,
2013-01-22 22:14:00,36.1,30.6,29.70,SE,135,2.2,5.4,80,0.00,,,0.12,pywws,2013-01-22 22:14:00,
2013-01-22 22:19:00,36.3,31.1,29.70,NE,45,3.8,6.9,81,0.01,,,0.13,pywws,2013-01-22 22:19:00,
2013-01-22 22:24:00,36.1,30.9,29.70,SE,135,2.2,6.0,81,0.01,,,0.13,pywws,2013-01-22 22:24:00,
2013-01-22 22:34:00,36.0,30.7,29.70,North,0,2.2,4.5,81,0.01,,,0.13,pywws,2013-01-22 22:34:00,
2013-01-22 22:39:00,36.0,30.7,29.71,NE,45,2.2,6.9,81,0.01,,,0.13,pywws,2013-01-22 22:39:00,
2013-01-22 22:44:00,36.1,30.9,29.70,South,180,2.2,8.3,81,0.01,,,0.13,pywws,2013-01-22 22:44:00,
2013-01-22 22:49:00,36.1,30.9,29.71,SW,225,3.8,6.9,81,0.01,,,0.13,pywws,2013-01-22 22:49:00,
2013-01-22 22:54:00,36.0,30.7,29.71,WNW,292,1.6,4.5,81,0.01,,,0.13,pywws,2013-01-22 22:54:00,
2013-01-22 23:04:00,36.1,30.9,29.71,NE,45,3.8,6.9,81,0.01,,,0.13,pywws,2013-01-22 23:04:00,
2013-01-22 23:09:00,36.3,30.8,29.72,North,-999,3.1,7.6,80,0.01,,,0.13,pywws,2013-01-22 23:09:00,
2013-01-22 23:14:00,36.3,30.8,29.71,SE,135,3.1,5.4,80,0.01,,,0.13,pywws,2013-01-22 23:14:00,
2013-01-22 23:19:00,36.5,30.9,29.72,NW,315,1.6,4.5,80,0.00,,,0.13,pywws,2013-01-22 23:19:00,
2013-01-22 23:24:00,36.5,30.9,29.72,NE,45,3.1,6.0,80,0.00,,,0.13,pywws,2013-01-22 23:24:00,
2013-01-22 23:34:00,36.3,30.8,29.72,NE,45,4.5,7.6,80,0.00,,,0.13,pywws,2013-01-22 23:34:00,
2013-01-22 23:39:00,36.5,30.9,29.72,North,0,1.6,4.5,80,0.00,,,0.13,pywws,2013-01-22 23:39:00,
2013-01-22 23:44:00,36.1,30.6,29.72,NW,315,0.7,3.8,80,0.00,,,0.13,pywws,2013-01-22 23:44:00,
2013-01-22 23:49:00,36.3,30.8,29.73,North,0,2.2,5.4,80,0.00,,,0.13,pywws,2013-01-22 23:49:00,
2013-01-22 23:54:00,36.0,30.4,29.72,NE,45,2.2,6.0,80,0.00,,,0.13,pywws,2013-01-22 23:54:00,